createdAt,value
2018-06-18T00:33:29.719Z,3.20
2018-06-18T00:35:57.540Z,3.43
2018-06-18T00:38:25.253Z,3.07
2018-06-18T00:40:53.008Z,3.13
2018-06-18T00:43:20.753Z,3.30
2018-06-18T00:45:48.547Z,4.00
2018-06-18T00:48:16.284Z,4.43
2018-06-18T00:50:44.015Z,3.43
2018-06-18T00:53:11.743Z,3.90
2018-06-18T00:55:50.739Z,4.87
2018-06-18T00:58:18.451Z,3.83
2018-06-18T01:00:46.187Z,4.20
2018-06-18T01:03:13.928Z,3.10
2018-06-18T01:05:41.691Z,4.13
2018-06-18T01:08:09.432Z,3.50
2018-06-18T01:10:37.463Z,3.63
2018-06-18T01:13:05.532Z,3.83
2018-06-18T01:15:33.269Z,3.20
2018-06-18T01:18:00.991Z,4.10
2018-06-18T01:20:28.627Z,4.00
2018-06-18T01:24:22.595Z,4.23
2018-06-18T01:26:50.295Z,4.10
2018-06-18T01:29:18.041Z,4.10
2018-06-18T01:31:45.783Z,3.97
2018-06-18T01:34:20.392Z,4.13
2018-06-18T01:36:48.106Z,4.40
2018-06-18T01:39:15.847Z,4.20
2018-06-18T01:41:43.707Z,3.60
2018-06-18T01:44:11.450Z,3.90
2018-06-18T01:46:39.188Z,3.63
2018-06-18T01:49:06.921Z,4.03
2018-06-18T01:51:34.672Z,4.23
2018-06-18T01:54:02.411Z,4.30
2018-06-18T01:56:30.228Z,3.50
2018-06-18T01:58:57.935Z,3.77
2018-06-18T02:01:25.680Z,4.60
2018-06-18T02:03:53.431Z,3.60
2018-06-18T02:06:21.452Z,3.73
2018-06-18T02:08:49.172Z,3.50
2018-06-18T02:11:16.883Z,3.47
2018-06-18T02:13:44.616Z,4.30
2018-06-18T02:16:12.399Z,3.40
2018-06-18T02:18:40.128Z,3.63
2018-06-18T02:21:08.270Z,4.80
2018-06-18T02:23:36.113Z,3.43
2018-06-18T02:26:03.947Z,3.20
2018-06-18T02:28:37.412Z,3.43
2018-06-18T02:31:10.808Z,4.17
2018-06-18T02:33:44.604Z,3.90
2018-06-18T02:36:17.950Z,4.30
2018-06-18T02:39:06.754Z,3.83
2018-06-18T02:41:34.760Z,4.00
2018-06-18T02:44:02.676Z,4.20
2018-06-18T02:46:30.724Z,4.07
2018-06-18T02:48:58.501Z,4.23
2018-06-18T02:51:26.428Z,5.13
2018-06-18T02:53:54.220Z,4.50
2018-06-18T02:56:59.140Z,4.77
2018-06-18T02:59:26.904Z,4.13
2018-06-18T03:01:54.620Z,4.50
2018-06-18T03:04:22.363Z,4.63
2018-06-18T03:06:50.155Z,4.57
2018-06-18T03:09:17.871Z,5.00
2018-06-18T03:11:45.599Z,4.73
2018-06-18T03:14:13.356Z,4.33
2018-06-18T03:16:41.076Z,4.53
2018-06-18T03:19:14.384Z,4.77
2018-06-18T03:21:47.747Z,4.30
2018-06-18T03:24:21.034Z,4.63
2018-06-18T03:26:54.427Z,4.70
2018-06-18T03:29:24.434Z,4.00
2018-06-18T03:31:52.924Z,4.57
2018-06-18T03:34:20.623Z,4.70
2018-06-18T03:36:48.412Z,4.50
2018-06-18T03:39:16.117Z,4.80
2018-06-18T03:41:45.814Z,4.47
2018-06-18T03:44:16.971Z,4.83
2018-06-18T03:46:44.736Z,4.73
2018-06-18T03:49:12.315Z,4.23
2018-06-18T03:51:40.084Z,4.20
2018-06-18T03:54:07.799Z,4.57
2018-06-18T03:56:35.530Z,5.13
2018-06-18T03:59:03.266Z,4.57
2018-06-18T04:01:45.104Z,4.60
2018-06-18T04:04:18.548Z,5.20
2018-06-18T04:06:51.844Z,5.50
2018-06-18T04:09:25.103Z,5.60
2018-06-18T04:11:58.473Z,5.70
2018-06-18T04:14:26.184Z,6.60
2018-06-18T04:16:53.803Z,5.00
2018-06-18T04:19:21.582Z,4.97
2018-06-18T04:21:49.305Z,4.87
2018-06-18T04:24:17.062Z,5.13
2018-06-18T04:26:44.779Z,4.70
2018-06-18T04:29:12.524Z,4.53
2018-06-18T04:31:40.241Z,4.70
2018-06-18T04:34:44.120Z,4.20
2018-06-18T04:37:11.851Z,4.60
2018-06-18T04:39:39.588Z,4.10
2018-06-18T04:42:13.001Z,3.63
2018-06-18T04:44:46.445Z,4.87
2018-06-18T04:47:19.867Z,4.30
2018-06-18T04:49:53.274Z,3.67
2018-06-18T04:52:21.020Z,3.33
2018-06-18T04:54:48.640Z,4.43
2018-06-18T04:57:16.352Z,3.60
2018-06-18T04:59:47.785Z,3.43
2018-06-18T05:02:15.420Z,4.33
2018-06-18T05:04:43.168Z,4.07
2018-06-18T05:07:10.920Z,3.80
2018-06-18T05:10:15.499Z,4.37
2018-06-18T05:12:43.226Z,3.50
2018-06-18T05:15:10.991Z,4.20
2018-06-18T05:17:38.738Z,4.00
2018-06-18T05:20:06.460Z,3.40
2018-06-18T05:22:34.196Z,3.50
2018-06-18T05:25:01.928Z,3.60
2018-06-18T05:27:32.763Z,3.20
2018-06-18T05:30:04.931Z,3.30
2018-06-18T05:32:32.868Z,3.90
2018-06-18T05:35:00.584Z,3.60
2018-06-18T05:37:37.552Z,3.13
2018-06-18T05:40:05.305Z,3.80
2018-06-18T05:42:33.034Z,3.53
2018-06-18T05:45:00.783Z,3.23
2018-06-18T05:47:28.498Z,3.60
2018-06-18T05:49:56.232Z,3.50
2018-06-18T05:52:23.959Z,3.53
2018-06-18T05:54:51.695Z,3.30
2018-06-18T05:57:19.428Z,3.40
2018-06-18T05:59:47.051Z,4.30
2018-06-18T06:02:14.838Z,3.50
2018-06-18T06:04:42.686Z,3.20
2018-06-18T06:07:10.523Z,4.40
2018-06-18T06:09:38.243Z,3.40
2018-06-18T06:12:07.248Z,3.70
2018-06-18T06:14:34.863Z,3.03
2018-06-18T06:17:02.591Z,3.90
2018-06-18T06:19:30.315Z,3.47
2018-06-18T06:21:58.316Z,3.93
2018-06-18T06:24:25.962Z,3.70
2018-06-18T06:26:53.704Z,4.20
2018-06-18T06:29:21.457Z,3.67
2018-06-18T06:31:49.194Z,4.07
2018-06-18T06:34:16.890Z,2.60
2018-06-18T06:36:44.630Z,3.17
2018-06-18T06:39:12.420Z,3.00
2018-06-18T06:41:43.116Z,3.47
2018-06-18T06:44:10.811Z,3.20
2018-06-18T06:46:38.540Z,3.40
2018-06-18T06:49:06.283Z,3.00
2018-06-18T06:51:33.891Z,3.17
2018-06-18T06:54:01.643Z,3.77
2018-06-18T06:56:29.371Z,2.87
2018-06-18T06:58:56.966Z,2.60
2018-06-18T07:01:24.757Z,2.83
2018-06-18T07:03:52.636Z,3.13
2018-06-18T07:06:20.402Z,2.90
2018-06-18T07:08:48.137Z,2.67
2018-06-18T07:11:15.953Z,2.93
2018-06-18T07:13:43.768Z,3.20
2018-06-18T07:16:11.331Z,3.33
2018-06-18T07:18:39.139Z,2.57
2018-06-18T07:21:06.900Z,2.90
2018-06-18T07:23:34.567Z,2.60
2018-06-18T07:26:02.197Z,2.60
2018-06-18T07:28:29.915Z,2.90
2018-06-18T07:30:57.685Z,3.43
2018-06-18T07:33:25.423Z,2.63
2018-06-18T07:35:53.099Z,3.47
2018-06-18T07:38:20.854Z,3.03
2018-06-18T07:40:48.464Z,2.70
2018-06-18T07:43:16.168Z,2.80
2018-06-18T07:45:43.934Z,3.10
2018-06-18T07:48:11.765Z,2.60
2018-06-18T07:50:39.467Z,2.30
2018-06-18T07:53:07.228Z,3.10
2018-06-18T07:55:34.990Z,2.53
2018-06-18T07:58:02.711Z,2.70
2018-06-18T08:00:30.439Z,2.93
2018-06-18T08:02:58.051Z,3.00
2018-06-18T08:05:25.896Z,2.97
2018-06-18T08:07:53.732Z,2.87
2018-06-18T08:10:21.339Z,2.87
2018-06-18T08:12:49.068Z,3.13
2018-06-18T08:15:16.775Z,2.67
2018-06-18T08:17:44.483Z,2.93
2018-06-18T08:20:14.502Z,2.70
2018-06-18T08:22:42.159Z,3.13
2018-06-18T08:25:09.775Z,3.97
2018-06-18T08:27:37.545Z,2.97
2018-06-18T08:30:05.683Z,3.13
2018-06-18T08:32:33.820Z,3.30
2018-06-18T08:35:02.714Z,3.20
2018-06-18T08:37:30.883Z,2.70
2018-06-18T08:39:58.496Z,2.90
2018-06-18T08:42:26.260Z,3.00
2018-06-18T08:44:54.268Z,3.30
2018-06-18T08:47:21.968Z,3.87
2018-06-18T08:49:55.283Z,3.23
2018-06-18T08:52:28.656Z,2.57
2018-06-18T08:55:01.775Z,2.63
2018-06-18T08:57:35.140Z,2.90
2018-06-18T09:00:08.543Z,3.77
2018-06-18T09:02:36.267Z,2.57
2018-06-18T09:05:11.101Z,2.97
2018-06-18T09:07:44.528Z,2.90
2018-06-18T09:10:12.304Z,2.63
2018-06-18T09:12:40.068Z,2.70
2018-06-18T09:15:08.052Z,3.23
2018-06-18T09:17:36.011Z,2.60
2018-06-18T09:20:04.232Z,3.37
2018-06-18T09:22:31.980Z,2.57
2018-06-18T09:24:59.701Z,2.60
2018-06-18T09:27:27.456Z,2.67
2018-06-18T09:30:00.915Z,2.40
2018-06-18T09:32:28.803Z,3.10
2018-06-18T09:34:56.225Z,2.40
2018-06-18T09:37:24.045Z,2.70
2018-06-18T09:39:51.710Z,2.70
2018-06-18T09:42:19.352Z,2.40
2018-06-18T09:44:47.091Z,2.77
2018-06-18T09:47:14.881Z,2.20
2018-06-18T09:49:48.228Z,2.10
2018-06-18T09:52:21.721Z,2.37
2018-06-18T09:54:55.155Z,2.53
2018-06-18T09:57:28.616Z,3.07
2018-06-18T10:00:00.056Z,2.43
2018-06-18T10:02:28.697Z,2.40
2018-06-18T10:04:57.840Z,2.00
2018-06-18T10:07:25.612Z,2.60
2018-06-18T10:09:53.572Z,2.67
2018-06-18T10:12:21.336Z,3.33
2018-06-18T10:14:49.096Z,2.23
2018-06-18T10:17:17.599Z,2.50
2018-06-18T10:19:45.308Z,2.70
2018-06-18T10:22:13.077Z,1.93
2018-06-18T10:24:40.809Z,2.13
2018-06-18T10:27:08.523Z,1.80
2018-06-18T10:29:36.124Z,2.00
2018-06-18T10:32:05.269Z,1.60
2018-06-18T10:34:38.596Z,2.03
2018-06-18T10:37:11.924Z,2.43
2018-06-18T10:39:45.323Z,1.77
2018-06-18T10:42:18.796Z,2.03
2018-06-18T10:44:46.607Z,1.23
2018-06-18T10:47:14.305Z,1.30
2018-06-18T10:49:42.047Z,1.60
2018-06-18T10:52:09.776Z,2.30
2018-06-18T10:54:37.537Z,1.47
2018-06-18T10:57:05.408Z,1.13
2018-06-18T10:59:33.131Z,1.30
2018-06-18T11:02:00.873Z,1.37
2018-06-18T11:04:28.812Z,1.83
2018-06-18T11:06:56.674Z,1.70
2018-06-18T11:09:24.760Z,1.27
2018-06-18T11:11:52.580Z,1.10
2018-06-18T11:14:20.320Z,1.40
2018-06-18T11:16:53.712Z,1.67
2018-06-18T11:19:26.977Z,1.90
2018-06-18T11:22:00.455Z,1.80
2018-06-18T11:24:33.836Z,1.30
2018-06-18T11:27:01.609Z,1.43
2018-06-18T11:29:29.361Z,2.00
2018-06-18T11:31:57.131Z,1.87
2018-06-18T11:34:24.875Z,1.53
2018-06-18T11:36:52.766Z,1.47
2018-06-18T11:39:20.529Z,1.50
2018-06-18T11:41:48.201Z,1.10
2018-06-18T11:44:15.876Z,2.17
2018-06-18T11:46:43.622Z,1.63
2018-06-18T11:49:11.360Z,1.83
2018-06-18T11:51:38.967Z,1.60
2018-06-18T11:54:06.727Z,2.10
2018-06-18T11:56:34.493Z,1.80
2018-06-18T11:59:07.924Z,1.90
2018-06-18T12:01:41.272Z,1.27
2018-06-18T12:04:14.667Z,1.57
2018-06-18T12:06:48.187Z,1.80
2018-06-18T12:09:21.597Z,1.70
2018-06-18T12:11:49.817Z,1.37
2018-06-18T12:14:17.528Z,1.60
2018-06-18T12:16:45.297Z,1.60
2018-06-18T12:19:13.009Z,2.90
2018-06-18T12:21:40.745Z,1.80
2018-06-18T12:24:09.110Z,1.67
2018-06-18T12:26:36.977Z,1.67
2018-06-18T12:29:04.768Z,1.80
2018-06-18T12:31:32.372Z,2.00
2018-06-18T12:34:00.124Z,1.70
2018-06-18T12:36:27.963Z,1.60
2018-06-18T12:38:55.735Z,1.63
2018-06-18T12:41:23.544Z,2.03
2018-06-18T12:43:52.912Z,1.30
2018-06-18T12:47:27.136Z,1.80
2018-06-18T12:50:00.429Z,1.97
2018-06-18T12:52:40.649Z,1.33
2018-06-18T12:55:14.121Z,2.23
2018-06-18T12:57:41.840Z,2.33
2018-06-18T13:00:09.482Z,1.83
2018-06-18T13:02:39.739Z,1.60
2018-06-18T13:05:07.517Z,1.60
2018-06-18T13:07:35.251Z,1.70
2018-06-18T13:10:03.191Z,1.53
2018-06-18T13:12:30.896Z,1.40
2018-06-18T13:14:58.654Z,1.70
2018-06-18T13:17:26.236Z,1.70
2018-06-18T13:19:53.972Z,1.20
2018-06-18T13:22:21.574Z,1.73
2018-06-18T13:24:49.387Z,1.33
2018-06-18T13:27:16.979Z,1.70
2018-06-18T13:29:44.772Z,1.33
2018-06-18T13:32:12.615Z,1.80
2018-06-18T13:34:40.323Z,1.67
2018-06-18T13:37:13.780Z,2.50
2018-06-18T13:39:46.999Z,1.43
2018-06-18T13:42:20.391Z,1.37
2018-06-18T13:44:53.867Z,1.57
2018-06-18T13:47:27.068Z,2.00
2018-06-18T13:49:56.044Z,2.23
2018-06-18T13:52:25.160Z,1.70
2018-06-18T13:54:53.508Z,2.57
2018-06-18T13:57:21.315Z,1.80
2018-06-18T13:59:49.237Z,1.63
2018-06-18T14:02:17.002Z,1.80
2018-06-18T14:04:44.608Z,1.80
2018-06-18T14:07:12.445Z,1.50
2018-06-18T14:09:40.140Z,1.50
2018-06-18T14:12:07.848Z,1.87
2018-06-18T14:14:35.584Z,1.60
2018-06-18T14:17:03.275Z,1.90
2018-06-18T14:19:36.811Z,1.90
2018-06-18T14:22:04.550Z,1.30
2018-06-18T14:24:32.281Z,1.60
2018-06-18T14:27:00.052Z,1.50
2018-06-18T14:29:33.222Z,1.70
2018-06-18T14:32:00.952Z,1.77
2018-06-18T14:34:34.255Z,1.90
2018-06-18T14:37:07.523Z,1.80
2018-06-18T14:39:40.896Z,1.30
2018-06-18T14:42:09.098Z,1.90
2018-06-18T14:44:37.701Z,1.47
2018-06-18T14:47:05.487Z,1.93
2018-06-18T14:49:33.244Z,1.50
2018-06-18T14:52:01.004Z,1.43
2018-06-18T14:54:28.729Z,1.53
2018-06-18T14:56:57.431Z,1.67
2018-06-18T14:59:45.212Z,1.90
2018-06-18T15:02:12.932Z,1.50
2018-06-18T15:04:40.676Z,3.57
2018-06-18T15:07:08.838Z,2.40
2018-06-18T15:09:36.737Z,2.30
2018-06-18T15:12:04.461Z,1.70
2018-06-18T15:14:32.238Z,1.80
2018-06-18T15:16:59.874Z,2.20
2018-06-18T15:19:27.604Z,2.27
2018-06-18T15:21:57.139Z,1.47
2018-06-18T15:24:33.083Z,1.53
2018-06-18T15:27:00.859Z,1.87
2018-06-18T15:29:28.537Z,1.53
2018-06-18T15:31:56.224Z,1.60
2018-06-18T15:34:23.834Z,2.03
2018-06-18T15:36:51.592Z,1.47
2018-06-18T15:39:19.372Z,1.90
2018-06-18T15:41:47.160Z,1.83
2018-06-18T15:44:15.095Z,1.60
2018-06-18T15:46:42.660Z,1.90
2018-06-18T15:49:10.461Z,1.50
2018-06-18T15:51:38.300Z,2.00
2018-06-18T15:54:06.419Z,1.63
2018-06-18T15:56:34.209Z,2.17
2018-06-18T15:59:02.525Z,1.50
2018-06-18T16:01:30.243Z,1.60
2018-06-18T16:03:58.028Z,1.33
2018-06-18T16:06:25.756Z,1.80
2018-06-18T16:08:53.532Z,1.80
2018-06-18T16:11:21.261Z,2.00
2018-06-18T16:13:49.017Z,2.00
2018-06-18T16:16:16.731Z,1.80
2018-06-18T16:18:44.504Z,1.33
2018-06-18T16:21:12.196Z,2.00
2018-06-18T16:23:39.955Z,2.20
2018-06-18T16:26:07.671Z,1.83
2018-06-18T16:28:35.411Z,2.13
2018-06-18T16:31:03.179Z,1.27
2018-06-18T16:33:30.981Z,1.67
2018-06-18T16:35:58.719Z,1.10
2018-06-18T16:38:26.319Z,1.50
2018-06-18T16:40:54.027Z,1.60
2018-06-18T16:43:21.724Z,1.40
2018-06-18T16:45:49.479Z,1.37
2018-06-18T16:48:17.340Z,1.67
2018-06-18T16:50:45.028Z,1.60
2018-06-18T16:53:12.757Z,1.37
2018-06-18T16:55:40.504Z,1.47
2018-06-18T16:58:08.257Z,1.13
2018-06-18T17:00:36.040Z,1.03
2018-06-18T17:03:03.724Z,0.90
2018-06-18T17:05:31.323Z,1.00
2018-06-18T17:07:59.080Z,1.10
2018-06-18T17:10:26.803Z,1.43
2018-06-18T17:12:54.535Z,1.33
2018-06-18T17:15:22.239Z,1.10
2018-06-18T17:17:49.865Z,2.67
2018-06-18T17:20:17.742Z,1.53
2018-06-18T17:22:45.456Z,1.20
2018-06-18T17:25:13.173Z,1.10
2018-06-18T17:27:40.951Z,1.50
2018-06-18T17:30:08.600Z,1.03
2018-06-18T17:32:36.443Z,1.57
2018-06-18T17:35:04.334Z,1.60
2018-06-18T17:37:32.046Z,1.40
2018-06-18T17:39:59.763Z,1.47
2018-06-18T17:42:27.498Z,1.60
2018-06-18T17:44:55.229Z,1.43
2018-06-18T17:47:23.036Z,1.60
2018-06-18T17:49:50.791Z,1.60
2018-06-18T17:52:18.548Z,1.10
2018-06-18T17:54:46.292Z,1.80
2018-06-18T17:57:14.079Z,5.10
2018-06-18T17:59:41.803Z,2.10
2018-06-18T18:02:09.570Z,3.00
2018-06-18T18:04:37.308Z,1.93
2018-06-18T18:07:05.075Z,1.90
2018-06-18T18:09:32.860Z,1.53
2018-06-18T18:12:00.720Z,1.60
2018-06-18T18:14:28.426Z,1.50
2018-06-18T18:16:56.160Z,2.07
2018-06-18T18:19:23.866Z,2.43
2018-06-18T18:21:51.608Z,1.77
2018-06-18T18:24:19.351Z,1.67
2018-06-18T18:26:47.109Z,1.40
2018-06-18T18:29:14.901Z,1.70
2018-06-18T18:31:42.668Z,2.10
2018-06-18T18:34:10.395Z,1.50
2018-06-18T18:36:38.111Z,1.63
2018-06-18T18:39:07.800Z,2.07
2018-06-18T18:41:35.564Z,1.60
2018-06-18T18:44:03.409Z,1.87
2018-06-18T18:46:31.180Z,1.50
2018-06-18T18:48:58.926Z,1.80
2018-06-18T18:51:26.566Z,2.33
2018-06-18T18:53:54.244Z,1.80
2018-06-18T18:56:33.285Z,2.00
2018-06-18T18:59:15.312Z,2.17
2018-06-18T19:01:43.126Z,1.97
2018-06-18T19:04:13.716Z,2.03
2018-06-18T19:06:41.548Z,2.60
2018-06-18T19:09:09.967Z,8.73
2018-06-18T19:11:37.788Z,3.50
2018-06-18T19:14:05.423Z,2.10
2018-06-18T19:16:33.197Z,2.50
2018-06-18T19:19:01.737Z,2.97
2018-06-18T19:21:29.495Z,5.30
2018-06-18T19:23:57.259Z,5.00
2018-06-18T19:26:25.142Z,2.77
2018-06-18T19:28:52.909Z,2.97
2018-06-18T19:31:21.605Z,3.20
2018-06-18T19:33:55.942Z,3.37
2018-06-18T19:36:23.757Z,3.07
2018-06-18T19:38:51.488Z,2.73
2018-06-18T19:41:19.242Z,3.37
2018-06-18T19:43:46.959Z,2.87
2018-06-18T19:46:15.752Z,3.20
2018-06-18T19:48:50.347Z,2.83
2018-06-18T19:51:17.986Z,3.00
2018-06-18T19:53:45.785Z,3.37
2018-06-18T19:56:13.614Z,3.30
2018-06-18T19:58:41.420Z,3.17
2018-06-18T20:01:09.427Z,4.90
2018-06-18T20:03:37.220Z,3.33
2018-06-18T20:06:05.044Z,3.33
2018-06-18T20:08:32.867Z,3.10
2018-06-18T20:11:00.623Z,3.37
2018-06-18T20:13:28.295Z,4.20
2018-06-18T20:15:56.105Z,4.17
2018-06-18T20:18:23.868Z,3.60
2018-06-18T20:20:51.680Z,5.07
2018-06-18T20:23:21.601Z,4.90
2018-06-18T20:25:53.696Z,4.13
2018-06-18T20:28:21.511Z,4.80
2018-06-18T20:30:49.327Z,4.57
2018-06-18T20:33:18.571Z,4.33
2018-06-18T20:35:50.199Z,4.10
2018-06-18T20:38:17.985Z,4.07
2018-06-18T20:40:45.739Z,3.23
2018-06-18T20:43:13.564Z,4.37
2018-06-18T20:45:41.341Z,4.87
2018-06-18T20:48:09.177Z,4.23
2018-06-18T20:50:36.927Z,3.67
2018-06-18T20:53:04.736Z,2.83
2018-06-18T20:55:32.502Z,4.10
2018-06-18T20:58:00.307Z,3.73
2018-06-18T21:00:28.077Z,3.93
2018-06-18T21:02:55.836Z,3.70
2018-06-18T21:05:23.716Z,4.47
2018-06-18T21:07:51.505Z,3.70
2018-06-18T21:10:19.359Z,4.43
2018-06-18T21:12:47.168Z,4.13
2018-06-18T21:15:14.981Z,4.17
2018-06-18T21:17:42.752Z,3.90
2018-06-18T21:20:10.532Z,4.00
2018-06-18T21:22:38.180Z,4.10
2018-06-18T21:25:06.986Z,3.90
2018-06-18T21:27:34.907Z,3.60
2018-06-18T21:30:02.740Z,3.40
2018-06-18T21:32:30.571Z,3.40
2018-06-18T21:34:58.196Z,3.60
2018-06-18T21:37:25.964Z,3.60
2018-06-18T21:39:53.680Z,3.33
2018-06-18T21:42:21.322Z,3.37
2018-06-18T21:44:54.872Z,3.50
2018-06-18T21:47:22.722Z,4.03
2018-06-18T21:49:50.465Z,3.60
2018-06-18T21:52:18.106Z,3.10
2018-06-18T21:54:45.831Z,3.70
2018-06-18T21:57:13.600Z,3.43
2018-06-18T21:59:41.399Z,3.20
2018-06-18T22:02:09.192Z,3.17
2018-06-18T22:04:36.839Z,3.60
2018-06-18T22:07:04.968Z,3.97
2018-06-18T22:09:32.800Z,4.47
2018-06-18T22:12:00.541Z,3.33
2018-06-18T22:14:28.328Z,3.47
2018-06-18T22:16:56.129Z,3.90
2018-06-18T22:19:23.894Z,3.90
2018-06-18T22:21:51.672Z,3.20
2018-06-18T22:24:19.455Z,3.50
2018-06-18T22:26:47.260Z,3.70
2018-06-18T22:29:15.758Z,4.10
2018-06-18T22:31:43.577Z,3.67
2018-06-18T22:34:11.455Z,3.33
2018-06-18T22:36:39.297Z,4.77
2018-06-18T22:39:09.060Z,3.87
2018-06-18T22:41:36.866Z,4.00
2018-06-18T22:44:04.838Z,4.43
2018-06-18T22:46:32.634Z,4.50
2018-06-18T22:49:00.460Z,4.67
2018-06-18T22:51:28.224Z,4.40
2018-06-18T22:53:56.046Z,4.87
2018-06-18T22:56:23.888Z,4.60
2018-06-18T22:58:51.732Z,4.33
2018-06-18T23:01:19.485Z,4.93
2018-06-18T23:03:47.278Z,4.70
2018-06-18T23:06:15.120Z,4.77
2018-06-18T23:08:43.036Z,5.20
2018-06-18T23:11:10.664Z,5.10
2018-06-18T23:13:38.917Z,4.20
2018-06-18T23:16:08.101Z,4.53
2018-06-18T23:18:35.966Z,4.47
2018-06-18T23:21:03.788Z,5.60
2018-06-18T23:23:31.633Z,4.47
2018-06-18T23:25:59.591Z,4.27
2018-06-18T23:28:32.152Z,4.70
2018-06-18T23:30:59.939Z,5.53
2018-06-18T23:33:27.700Z,5.23
2018-06-18T23:35:55.466Z,4.63
2018-06-18T23:38:23.327Z,4.80
2018-06-18T23:40:51.129Z,5.20
2018-06-18T23:43:19.960Z,5.17
2018-06-18T23:45:47.852Z,5.00
2018-06-18T23:48:15.703Z,5.13
2018-06-18T23:50:43.737Z,5.10
2018-06-18T23:53:11.485Z,5.47
2018-06-18T23:55:39.771Z,4.93
2018-06-18T23:58:07.588Z,5.50
